WXM80 ListenWXM80 Stop

You find our weather info also at:

UK Metoffice

WeatherCloud

Weather Underground

Northeastern Weather Network

AWEKAS

Citizen Weather Observer Program (CWOP)

HAMweather, WeatherForYou, PWS Weather


Weather Underground History page Text

Daily Summary for October 26, 2017 Units:  English    Metric   Both
« Previous Day
Next Day »
Daily Weekly Monthly Yearly Custom
  High: Low: Average:
Temperature: 58.7 °F 51.9 °F 56.5 °F
Dew Point: 56.4 °F 40.6 °F 47.9 °F
Humidity: 94 % 62 % 73 %
Wind Speed: 9.2 mph 0.0 mph 3.7 mph
Wind Gust: 17.3 mph - -
Wind:- - SW
Pressure: 29.87 in 29.57 in -
Precipitation: 0.02 in    
Historical Graphs
 
 
Tabular Data for October 26, 2017
Time Temperature Dew Point Pressure Wind Wind Speed Wind Gust Humidity Rainfall Rate (Hourly)
00:01 58.1 °F 56.4 °F 29.65 in West 2.9 mph 8.1 mph 94 % 0.00 in
00:06 58.0 °F 56.0 °F 29.66 in NW 1.6 mph 5.8 mph 93 % 0.00 in
00:11 57.9 °F 55.6 °F 29.66 in NW 0.1 mph 4.6 mph 92 % 0.00 in
00:16 57.7 °F 54.2 °F 29.65 in NW 2.4 mph 5.8 mph 88 % 0.00 in
00:21 57.7 °F 52.9 °F 29.64 in North 3.1 mph 4.6 mph 84 % 0.00 in
00:26 57.8 °F 52.0 °F 29.64 in NW 2.0 mph 5.8 mph 81 % 0.00 in
00:31 57.9 °F 51.1 °F 29.65 in NNW 1.5 mph 5.8 mph 78 % 0.00 in
00:36 58.0 °F 51.2 °F 29.67 in WNW 4.7 mph 5.8 mph 78 % 0.00 in
00:41 58.1 °F 50.9 °F 29.65 in NW 1.4 mph 8.0 mph 77 % 0.00 in
00:46 58.3 °F 51.1 °F 29.65 in SW 3.3 mph 4.6 mph 77 % 0.00 in
00:51 58.4 °F 50.9 °F 29.67 in West 3.0 mph 7.0 mph 76 % 0.00 in
00:56 58.5 °F 51.0 °F 29.65 in WNW 1.1 mph 2.3 mph 76 % 0.00 in
01:01 58.6 °F 51.4 °F 29.65 in North 2.4 mph 3.5 mph 77 % 0.00 in
01:06 58.6 °F 50.7 °F 29.66 in WNW 4.1 mph 5.0 mph 75 % 0.00 in
01:11 58.6 °F 50.3 °F 29.66 in WNW 5.0 mph 8.1 mph 74 % 0.00 in
01:22 58.7 °F 49.3 °F 29.67 in North 0.8 mph 5.8 mph 71 % 0.00 in
01:27 58.7 °F 49.3 °F 29.68 in WNW 6.3 mph 11.5 mph 71 % 0.00 in
01:32 58.7 °F 48.6 °F 29.68 in NNW 5.4 mph 9.2 mph 69 % 0.00 in
01:37 58.7 °F 48.9 °F 29.66 in NW 4.5 mph 8.1 mph 70 % 0.00 in
01:42 58.6 °F 48.5 °F 29.66 in NNE 1.4 mph 6.0 mph 69 % 0.00 in
01:47 58.6 °F 48.5 °F 29.65 in WNW 3.9 mph 8.1 mph 69 % 0.00 in
01:52 58.5 °F 48.4 °F 29.66 in NNE 4.3 mph 9.2 mph 69 % 0.00 in
01:57 58.5 °F 48.4 °F 29.66 in West 4.1 mph 9.2 mph 69 % 0.00 in
02:02 58.5 °F 48.7 °F 29.66 in NW 4.5 mph 9.2 mph 70 % 0.00 in
02:07 58.4 °F 48.3 °F 29.65 in WNW 2.2 mph 5.8 mph 69 % 0.00 in
02:12 58.3 °F 48.6 °F 29.63 in NNW 0.4 mph 2.3 mph 70 % 0.00 in
02:17 58.2 °F 48.1 °F 29.62 in NW 1.8 mph 6.9 mph 69 % 0.00 in
02:22 58.1 °F 48.0 °F 29.61 in NNE 5.2 mph 8.1 mph 69 % 0.00 in
02:27 58.1 °F 48.0 °F 29.60 in North 4.5 mph 6.9 mph 69 % 0.00 in
02:32 58.0 °F 49.0 °F 29.59 in NW 6.8 mph 10.4 mph 72 % 0.00 in
02:37 58.0 °F 49.0 °F 29.57 in NE 6.6 mph 11.0 mph 72 % 0.00 in
02:42 58.1 °F 49.5 °F 29.58 in NNE 6.4 mph 11.5 mph 73 % 0.00 in
02:48 58.2 °F 50.0 °F 29.60 in North 5.1 mph 10.4 mph 74 % 0.00 in
02:53 58.2 °F 50.3 °F 29.61 in NNW 3.3 mph 5.8 mph 75 % 0.00 in
02:58 58.2 °F 50.3 °F 29.61 in NNW 4.0 mph 8.0 mph 75 % 0.00 in
03:03 58.2 °F 50.3 °F 29.62 in North 4.2 mph 8.1 mph 75 % 0.00 in
03:08 58.2 °F 50.7 °F 29.61 in NNW 6.5 mph 9.2 mph 76 % 0.00 in
03:13 58.2 °F 51.0 °F 29.61 in NNW 5.8 mph 8.1 mph 77 % 0.00 in
03:18 58.2 °F 51.0 °F 29.62 in North 5.7 mph 10.4 mph 77 % 0.00 in
03:23 58.2 °F 51.4 °F 29.61 in NW 3.8 mph 9.2 mph 78 % 0.00 in
03:28 58.2 °F 51.0 °F 29.62 in NE 2.6 mph 8.0 mph 77 % 0.00 in
03:33 58.2 °F 51.4 °F 29.64 in NNW 3.7 mph 8.1 mph 78 % 0.00 in
03:38 58.2 °F 51.0 °F 29.64 in NNE 4.4 mph 7.0 mph 77 % 0.00 in
03:43 58.2 °F 51.0 °F 29.62 in WNW 0.8 mph 5.8 mph 77 % 0.00 in
03:48 58.2 °F 51.0 °F 29.62 in NNE 5.2 mph 10.4 mph 77 % 0.00 in
03:53 58.1 °F 50.6 °F 29.63 in NNW 2.2 mph 5.8 mph 76 % 0.00 in
03:58 58.1 °F 50.6 °F 29.61 in NW 5.9 mph 12.0 mph 76 % 0.00 in
04:03 58.1 °F 50.6 °F 29.62 in North 2.9 mph 4.6 mph 76 % 0.00 in
04:09 58.1 °F 50.6 °F 29.63 in NNE 0.8 mph 4.6 mph 76 % 0.00 in
04:14 58.0 °F 49.8 °F 29.62 in NW 4.9 mph 11.5 mph 74 % 0.00 in
04:19 58.0 °F 49.8 °F 29.60 in NNE 6.7 mph 11.5 mph 74 % 0.00 in
04:24 58.0 °F 49.8 °F 29.61 in North 8.2 mph 12.0 mph 74 % 0.00 in
04:29 57.9 °F 49.7 °F 29.61 in NNE 5.1 mph 11.5 mph 74 % 0.00 in
04:34 57.9 °F 49.7 °F 29.61 in NNE 5.2 mph 10.4 mph 74 % 0.00 in
04:39 57.8 °F 49.2 °F 29.62 in North 6.3 mph 8.1 mph 73 % 0.00 in
04:44 57.8 °F 49.2 °F 29.62 in NNE 4.1 mph 6.9 mph 73 % 0.00 in
04:49 57.7 °F 49.1 °F 29.63 in NW 2.7 mph 8.1 mph 73 % 0.00 in
04:54 57.8 °F 49.6 °F 29.63 in North 2.4 mph 8.1 mph 74 % 0.00 in
04:59 57.7 °F 49.1 °F 29.62 in North 4.4 mph 8.0 mph 73 % 0.00 in
05:04 57.7 °F 49.1 °F 29.61 in NNE 4.8 mph 10.4 mph 73 % 0.00 in
05:09 57.7 °F 49.1 °F 29.60 in NNW 5.9 mph 11.5 mph 73 % 0.00 in
05:14 57.7 °F 49.1 °F 29.60 in NNE 7.3 mph 12.0 mph 73 % 0.00 in
05:19 57.7 °F 49.1 °F 29.60 in NE 5.6 mph 13.0 mph 73 % 0.00 in
05:25 57.7 °F 48.7 °F 29.61 in NNW 7.7 mph 12.0 mph 72 % 0.00 in
05:30 57.7 °F 49.5 °F 29.61 in NNE 5.6 mph 11.5 mph 74 % 0.00 in
05:35 57.7 °F 49.5 °F 29.61 in NNE 4.3 mph 11.5 mph 74 % 0.00 in
05:40 57.7 °F 49.8 °F 29.63 in NNE 5.5 mph 10.4 mph 75 % 0.00 in
05:45 57.7 °F 49.8 °F 29.62 in NNE 3.9 mph 8.1 mph 75 % 0.00 in
05:50 57.7 °F 49.5 °F 29.63 in ENE 6.6 mph 11.5 mph 74 % 0.00 in
05:55 57.6 °F 49.4 °F 29.63 in NNW 1.9 mph 8.1 mph 74 % 0.00 in
06:00 57.6 °F 49.4 °F 29.63 in NNE 6.5 mph 9.2 mph 74 % 0.00 in
06:05 57.5 °F 49.3 °F 29.63 in NNE 6.2 mph 11.5 mph 74 % 0.00 in
06:10 57.5 °F 49.3 °F 29.63 in North 6.7 mph 9.2 mph 74 % 0.00 in
06:15 57.5 °F 49.3 °F 29.62 in North 7.0 mph 13.8 mph 74 % 0.00 in
06:20 57.4 °F 49.5 °F 29.61 in NNE 2.9 mph 5.0 mph 75 % 0.00 in
06:25 57.3 °F 49.1 °F 29.62 in NW 3.6 mph 6.9 mph 74 % 0.00 in
06:30 57.3 °F 49.1 °F 29.62 in NNW 3.4 mph 11.5 mph 74 % 0.00 in
06:35 57.2 °F 49.0 °F 29.62 in North 4.1 mph 6.9 mph 74 % 0.00 in
06:40 57.2 °F 49.3 °F 29.61 in NW 6.2 mph 8.1 mph 75 % 0.00 in
06:45 57.2 °F 49.0 °F 29.61 in NW 5.6 mph 11.5 mph 74 % 0.00 in
06:51 57.2 °F 49.3 °F 29.61 in NNE 3.0 mph 8.0 mph 75 % 0.00 in
06:56 57.2 °F 49.3 °F 29.61 in NNW 2.0 mph 8.0 mph 75 % 0.00 in
07:01 57.1 °F 48.9 °F 29.60 in NNE 5.0 mph 11.5 mph 74 % 0.00 in
07:06 57.0 °F 48.8 °F 29.60 in North 6.0 mph 12.0 mph 74 % 0.00 in
07:11 56.9 °F 48.7 °F 29.60 in North 3.0 mph 10.0 mph 74 % 0.00 in
07:16 56.9 °F 49.1 °F 29.61 in North 6.0 mph 15.0 mph 75 % 0.00 in
07:21 56.8 °F 49.3 °F 29.61 in NNE 5.0 mph 12.0 mph 76 % 0.00 in
07:26 56.8 °F 49.0 °F 29.62 in North 3.0 mph 10.0 mph 75 % 0.00 in
07:31 56.8 °F 49.3 °F 29.61 in NNW 2.0 mph 7.0 mph 76 % 0.00 in
07:36 56.7 °F 49.2 °F 29.61 in NNW 5.0 mph 12.0 mph 76 % 0.00 in
07:41 56.7 °F 48.9 °F 29.61 in NE 2.7 mph 9.2 mph 75 % 0.00 in
07:46 56.7 °F 49.2 °F 29.61 in North 2.0 mph 12.0 mph 76 % 0.00 in
07:50 56.7 °F 49.2 °F 29.61 in NNE 3.6 mph 8.1 mph 76 % 0.00 in
07:56 56.7 °F 49.2 °F 29.60 in NNW 6.0 mph 12.0 mph 76 % 0.00 in
08:01 56.6 °F 49.1 °F 29.61 in NNE 3.2 mph 6.9 mph 76 % 0.00 in
08:06 56.6 °F 49.5 °F 29.61 in NNW 4.4 mph 10.4 mph 77 % 0.00 in
08:11 56.6 °F 49.1 °F 29.60 in NNE 5.0 mph 9.2 mph 76 % 0.00 in
08:16 56.5 °F 49.0 °F 29.61 in NNW 3.3 mph 10.4 mph 76 % 0.00 in
08:21 56.5 °F 49.0 °F 29.61 in NNE 5.3 mph 11.5 mph 76 % 0.00 in
08:26 56.4 °F 49.3 °F 29.61 in North 4.4 mph 10.4 mph 77 % 0.00 in
08:31 56.4 °F 49.3 °F 29.62 in WNW 2.8 mph 6.0 mph 77 % 0.00 in
08:36 56.4 °F 48.9 °F 29.62 in NNW 5.8 mph 8.1 mph 76 % 0.00 in
08:41 56.4 °F 49.3 °F 29.62 in NNE 1.4 mph 8.1 mph 77 % 0.00 in
08:46 56.4 °F 49.3 °F 29.62 in NNW 7.1 mph 10.4 mph 77 % 0.00 in
08:51 56.3 °F 48.8 °F 29.62 in ENE 4.0 mph 10.4 mph 76 % 0.00 in
08:56 56.3 °F 48.8 °F 29.63 in NNW 1.1 mph 3.5 mph 76 % 0.00 in
09:01 56.3 °F 49.2 °F 29.63 in NW 2.0 mph 4.6 mph 77 % 0.00 in
09:06 56.3 °F 49.2 °F 29.63 in NE 2.2 mph 9.2 mph 77 % 0.00 in
09:11 56.3 °F 48.8 °F 29.63 in NNW 3.7 mph 9.2 mph 76 % 0.00 in
09:17 56.4 °F 48.9 °F 29.63 in NNW 2.4 mph 11.5 mph 76 % 0.00 in
09:22 56.4 °F 48.9 °F 29.63 in WSW 3.4 mph 7.0 mph 76 % 0.00 in
09:27 56.4 °F 49.3 °F 29.63 in NNW 3.0 mph 5.8 mph 77 % 0.00 in
09:32 56.5 °F 49.0 °F 29.63 in WNW 1.6 mph 5.8 mph 76 % 0.00 in
09:37 56.5 °F 48.7 °F 29.63 in North 6.5 mph 10.4 mph 75 % 0.00 in
09:42 56.6 °F 49.1 °F 29.63 in NNE 2.3 mph 5.8 mph 76 % 0.00 in
09:47 56.6 °F 48.4 °F 29.63 in NW 4.0 mph 8.1 mph 74 % 0.00 in
09:52 56.7 °F 49.2 °F 29.63 in West 3.6 mph 9.2 mph 76 % 0.00 in
09:57 56.8 °F 48.6 °F 29.63 in NW 1.6 mph 5.8 mph 74 % 0.00 in
10:02 56.8 °F 48.6 °F 29.64 in North 4.3 mph 6.0 mph 74 % 0.00 in
10:07 56.8 °F 49.0 °F 29.63 in NNE 1.7 mph 9.2 mph 75 % 0.00 in
10:12 56.8 °F 48.6 °F 29.63 in North 6.8 mph 9.2 mph 74 % 0.00 in
10:17 56.8 °F 48.6 °F 29.63 in North 3.6 mph 6.9 mph 74 % 0.00 in
10:22 56.8 °F 48.6 °F 29.64 in NW 1.4 mph 9.2 mph 74 % 0.00 in
10:27 56.8 °F 49.0 °F 29.63 in North 3.9 mph 6.0 mph 75 % 0.00 in
10:33 56.7 °F 48.1 °F 29.63 in NNE 6.6 mph 11.5 mph 73 % 0.00 in
10:38 56.7 °F 48.5 °F 29.63 in North 6.2 mph 10.4 mph 74 % 0.00 in
10:43 56.7 °F 48.1 °F 29.64 in NNW 5.2 mph 8.1 mph 73 % 0.00 in
10:48 56.8 °F 48.2 °F 29.64 in NNE 3.1 mph 10.4 mph 73 % 0.00 in
10:53 56.8 °F 48.6 °F 29.63 in NNW 4.1 mph 10.4 mph 74 % 0.00 in
10:58 56.9 °F 48.7 °F 29.64 in NW 2.1 mph 3.5 mph 74 % 0.00 in
11:03 57.0 °F 48.4 °F 29.63 in NNW 2.7 mph 6.9 mph 73 % 0.00 in
11:08 57.1 °F 48.5 °F 29.63 in North 2.5 mph 9.2 mph 73 % 0.00 in
11:13 57.3 °F 49.1 °F 29.63 in NW 2.8 mph 7.0 mph 74 % 0.00 in
11:18 57.5 °F 48.5 °F 29.64 in NNW 4.3 mph 11.5 mph 72 % 0.00 in
11:20 57.5 °F 48.5 °F 29.64 in NNW 4.7 mph 9.0 mph 72 % 0.00 in
11:25 57.5 °F 48.5 °F 29.64 in WNW 3.7 mph 6.9 mph 72 % 0.00 in
11:30 57.5 °F 48.5 °F 29.64 in SW 3.9 mph 5.8 mph 72 % 0.00 in
11:40 57.6 °F 48.6 °F 29.65 in WNW 0.6 mph 8.1 mph 72 % 0.00 in
11:45 57.6 °F 48.6 °F 29.64 in NW 6.2 mph 9.2 mph 72 % 0.00 in
11:51 57.5 °F 48.9 °F 29.65 in North 2.9 mph 5.0 mph 73 % 0.00 in
11:56 57.4 °F 48.8 °F 29.65 in NNW 2.0 mph 10.0 mph 73 % 0.00 in
12:01 57.3 °F 48.7 °F 29.64 in North 2.3 mph 10.4 mph 73 % 0.00 in
12:06 57.2 °F 48.3 °F 29.64 in NNW 1.3 mph 5.0 mph 72 % 0.00 in
12:11 57.2 °F 48.6 °F 29.64 in NNE 0.2 mph 2.3 mph 73 % 0.00 in
12:16 57.1 °F 48.5 °F 29.64 in NW 2.6 mph 4.6 mph 73 % 0.00 in
12:21 57.1 °F 48.5 °F 29.64 in North 4.0 mph 5.8 mph 73 % 0.00 in
12:26 57.1 °F 47.8 °F 29.63 in WNW 3.6 mph 10.4 mph 71 % 0.00 in
12:31 57.0 °F 47.7 °F 29.64 in NNW 2.0 mph 6.9 mph 71 % 0.00 in
12:36 56.9 °F 48.0 °F 29.64 in North 2.2 mph 8.1 mph 72 % 0.00 in
12:41 56.9 °F 47.6 °F 29.64 in North 4.0 mph 10.4 mph 71 % 0.00 in
12:46 56.8 °F 47.5 °F 29.64 in NE 3.0 mph 8.1 mph 71 % 0.00 in
12:51 56.8 °F 47.9 °F 29.64 in WNW 3.9 mph 11.0 mph 72 % 0.00 in
12:56 56.8 °F 47.5 °F 29.64 in NNE 6.4 mph 8.1 mph 71 % 0.00 in
13:01 56.8 °F 47.1 °F 29.64 in NW 7.0 mph 9.0 mph 70 % 0.00 in
13:06 56.9 °F 47.6 °F 29.63 in North 4.3 mph 9.2 mph 71 % 0.00 in
13:11 56.9 °F 47.6 °F 29.63 in NNW 1.2 mph 8.1 mph 71 % 0.00 in
13:17 56.9 °F 48.0 °F 29.64 in NW 4.0 mph 8.1 mph 72 % 0.00 in
13:22 56.9 °F 47.6 °F 29.63 in NW 4.2 mph 9.2 mph 71 % 0.00 in
13:27 56.8 °F 47.1 °F 29.63 in WNW 2.1 mph 10.4 mph 70 % 0.00 in
13:32 56.8 °F 47.9 °F 29.63 in NNW 2.1 mph 8.1 mph 72 % 0.00 in
13:37 56.8 °F 47.5 °F 29.63 in NNE 5.5 mph 11.5 mph 71 % 0.00 in
13:41 56.7 °F 47.4 °F 29.63 in North 2.3 mph 8.1 mph 71 % 0.00 in
13:46 56.6 °F 47.3 °F 29.63 in North 2.7 mph 6.9 mph 71 % 0.00 in
13:52 56.6 °F 47.3 °F 29.63 in NW 5.5 mph 9.0 mph 71 % 0.00 in
13:57 56.5 °F 47.2 °F 29.63 in NNE 3.1 mph 3.5 mph 71 % 0.00 in
14:02 56.5 °F 47.2 °F 29.63 in North 1.4 mph 5.8 mph 71 % 0.00 in
14:07 56.4 °F 47.5 °F 29.62 in North 1.6 mph 5.8 mph 72 % 0.00 in
14:12 56.4 °F 47.9 °F 29.62 in NW 4.1 mph 8.1 mph 73 % 0.00 in
14:17 56.4 °F 48.2 °F 29.63 in WNW 2.4 mph 5.0 mph 74 % 0.00 in
14:22 56.4 °F 48.6 °F 29.63 in NW 4.0 mph 10.4 mph 75 % 0.00 in
14:27 56.4 °F 49.3 °F 29.63 in WNW 1.5 mph 4.6 mph 77 % 0.00 in
14:32 56.3 °F 49.5 °F 29.63 in NW 3.0 mph 5.8 mph 78 % 0.01 in
14:37 56.1 °F 49.7 °F 29.63 in NNW 0.4 mph 2.3 mph 79 % 0.01 in
14:42 56.0 °F 49.6 °F 29.63 in NW 4.0 mph 4.6 mph 79 % 0.01 in
14:52 55.6 °F 49.5 °F 29.64 in North 3.5 mph 6.9 mph 80 % 0.01 in
14:57 55.5 °F 49.8 °F 29.63 in NW 2.4 mph 6.9 mph 81 % 0.01 in
15:02 55.5 °F 49.8 °F 29.64 in NNW 3.3 mph 11.5 mph 81 % 0.02 in
15:08 55.5 °F 49.4 °F 29.64 in NW 0.7 mph 8.1 mph 80 % 0.02 in
15:13 55.7 °F 50.0 °F 29.64 in West 2.2 mph 4.6 mph 81 % 0.02 in
15:18 55.9 °F 49.8 °F 29.64 in WNW 3.5 mph 10.4 mph 80 % 0.02 in
15:23 56.1 °F 49.3 °F 29.65 in NW 3.2 mph 5.8 mph 78 % 0.02 in
15:28 56.4 °F 49.3 °F 29.65 in NNW 3.1 mph 8.1 mph 77 % 0.02 in
15:33 56.6 °F 48.8 °F 29.65 in WNW 4.2 mph 7.0 mph 75 % 0.01 in
15:38 56.8 °F 49.3 °F 29.65 in NNW 3.0 mph 5.8 mph 76 % 0.01 in
15:43 56.9 °F 48.7 °F 29.65 in NW 2.8 mph 8.1 mph 74 % 0.01 in
15:48 57.0 °F 49.5 °F 29.66 in West 0.4 mph 3.5 mph 76 % 0.01 in
15:53 57.2 °F 50.1 °F 29.66 in SW 2.8 mph 4.6 mph 77 % 0.01 in
15:58 57.2 °F 50.1 °F 29.67 in NW 4.5 mph 8.1 mph 77 % 0.01 in
16:03 57.2 °F 50.1 °F 29.67 in SW 4.6 mph 11.5 mph 77 % 0.00 in
16:08 57.1 °F 49.6 °F 29.67 in West 2.1 mph 5.8 mph 76 % 0.00 in
16:13 57.1 °F 49.6 °F 29.68 in SSW 4.0 mph 9.2 mph 76 % 0.00 in
16:18 57.0 °F 49.2 °F 29.68 in SW 3.2 mph 5.0 mph 75 % 0.00 in
16:23 56.9 °F 49.1 °F 29.67 in WNW 2.8 mph 6.9 mph 75 % 0.00 in
16:29 56.8 °F 48.6 °F 29.68 in SW 3.8 mph 6.0 mph 74 % 0.00 in
16:34 56.8 °F 49.0 °F 29.67 in WNW 5.4 mph 9.2 mph 75 % 0.00 in
16:39 56.8 °F 48.6 °F 29.67 in WNW 5.7 mph 11.5 mph 74 % 0.00 in
16:44 56.7 °F 48.1 °F 29.68 in NW 1.5 mph 3.5 mph 73 % 0.00 in
16:49 56.8 °F 48.6 °F 29.68 in WNW 2.5 mph 6.9 mph 74 % 0.00 in
16:54 56.8 °F 48.6 °F 29.68 in NW 2.3 mph 4.6 mph 74 % 0.00 in
16:59 56.7 °F 48.1 °F 29.69 in WNW 2.3 mph 5.8 mph 73 % 0.00 in
17:04 56.8 °F 48.2 °F 29.69 in West 1.4 mph 4.6 mph 73 % 0.00 in
17:09 56.8 °F 48.2 °F 29.69 in West 2.4 mph 6.9 mph 73 % 0.00 in
17:14 56.7 °F 48.1 °F 29.68 in North 2.0 mph 4.6 mph 73 % 0.00 in
17:19 56.8 °F 48.2 °F 29.69 in WNW 2.7 mph 6.9 mph 73 % 0.00 in
17:24 56.7 °F 48.1 °F 29.69 in NW 0.6 mph 3.5 mph 73 % 0.00 in
17:29 56.7 °F 47.8 °F 29.69 in West 0.7 mph 2.3 mph 72 % 0.00 in
17:34 56.7 °F 47.8 °F 29.69 in NW 0.4 mph 2.0 mph 72 % 0.00 in
17:39 56.6 °F 47.3 °F 29.70 in WNW 2.6 mph 3.5 mph 71 % 0.00 in
17:44 56.6 °F 47.7 °F 29.70 in WNW 0.9 mph 3.5 mph 72 % 0.00 in
17:50 56.5 °F 47.6 °F 29.71 in West 1.1 mph 3.5 mph 72 % 0.00 in
17:55 56.5 °F 47.6 °F 29.71 in WNW 1.7 mph 4.6 mph 72 % 0.00 in
18:00 56.4 °F 47.5 °F 29.71 in WSW 1.5 mph 3.5 mph 72 % 0.00 in
18:05 56.4 °F 47.9 °F 29.71 in SW 1.7 mph 3.5 mph 73 % 0.00 in
18:10 56.4 °F 48.2 °F 29.72 in WSW 0.9 mph 3.5 mph 74 % 0.00 in
18:15 56.3 °F 48.1 °F 29.72 in WSW 0.5 mph 2.3 mph 74 % 0.00 in
18:20 56.2 °F 48.0 °F 29.72 in Calm     74 % 0.00 in
18:25 56.1 °F 48.3 °F 29.72 in Calm     75 % 0.00 in
18:30 56.0 °F 48.2 °F 29.72 in Calm     75 % 0.00 in
18:35 55.9 °F 48.1 °F 29.72 in Calm     75 % 0.00 in
18:40 55.8 °F 48.3 °F 29.73 in Calm     76 % 0.00 in
18:45 55.7 °F 48.2 °F 29.73 in WSW 0.6 mph 2.3 mph 76 % 0.00 in
18:50 55.5 °F 48.1 °F 29.73 in WSW 1.0 mph 3.5 mph 76 % 0.00 in
18:55 55.4 °F 48.0 °F 29.73 in Calm     76 % 0.00 in
19:00 55.2 °F 47.8 °F 29.73 in Calm   1.0 mph 76 % 0.00 in
19:05 55.1 °F 48.0 °F 29.74 in WSW 2.0 mph 3.5 mph 77 % 0.00 in
19:10 54.9 °F 47.8 °F 29.75 in SW 0.5 mph 3.5 mph 77 % 0.00 in
19:16 54.7 °F 47.6 °F 29.75 in West 1.8 mph 4.0 mph 77 % 0.00 in
19:21 54.6 °F 47.2 °F 29.75 in WNW 3.0 mph 8.0 mph 76 % 0.00 in
19:26 54.7 °F 47.3 °F 29.76 in WNW 7.0 mph 15.0 mph 76 % 0.00 in
19:31 55.0 °F 46.5 °F 29.76 in West 6.0 mph 14.0 mph 73 % 0.00 in
19:36 55.2 °F 46.3 °F 29.76 in WNW 5.0 mph 10.0 mph 72 % 0.00 in
19:41 55.4 °F 45.4 °F 29.77 in WNW 7.0 mph 15.0 mph 69 % 0.00 in
19:46 55.6 °F 45.6 °F 29.77 in West 2.0 mph 17.0 mph 69 % 0.00 in
19:51 55.7 °F 44.9 °F 29.78 in WNW 5.5 mph 11.5 mph 67 % 0.00 in
19:56 55.7 °F 44.5 °F 29.78 in WNW 6.0 mph 16.0 mph 66 % 0.00 in
20:01 55.8 °F 45.0 °F 29.79 in WNW 6.0 mph 11.5 mph 67 % 0.00 in
20:06 55.8 °F 44.6 °F 29.79 in NW 4.4 mph 11.5 mph 66 % 0.00 in
20:11 55.7 °F 44.1 °F 29.79 in West 5.1 mph 6.9 mph 65 % 0.00 in
20:16 55.6 °F 44.4 °F 29.79 in WSW 3.7 mph 10.4 mph 66 % 0.00 in
20:21 55.5 °F 44.3 °F 29.80 in WSW 6.3 mph 11.5 mph 66 % 0.00 in
20:26 55.4 °F 44.2 °F 29.80 in NW 5.0 mph 12.0 mph 66 % 0.00 in
20:31 55.3 °F 44.1 °F 29.80 in West 3.6 mph 8.1 mph 66 % 0.00 in
20:36 55.2 °F 44.0 °F 29.80 in SSW 4.4 mph 12.7 mph 66 % 0.00 in
20:41 55.2 °F 44.0 °F 29.80 in WNW 4.8 mph 10.4 mph 66 % 0.00 in
20:46 55.1 °F 43.5 °F 29.81 in West 4.8 mph 13.8 mph 65 % 0.00 in
20:51 55.1 °F 43.5 °F 29.81 in West 6.4 mph 9.2 mph 65 % 0.00 in
20:56 55.1 °F 43.5 °F 29.81 in West 6.7 mph 12.7 mph 65 % 0.00 in
21:01 55.1 °F 43.5 °F 29.81 in WNW 7.8 mph 11.5 mph 65 % 0.00 in
21:06 55.0 °F 43.4 °F 29.82 in NW 6.4 mph 8.1 mph 65 % 0.00 in
21:12 55.0 °F 43.4 °F 29.82 in West 3.7 mph 12.7 mph 65 % 0.00 in
21:17 54.9 °F 42.5 °F 29.82 in WSW 8.3 mph 16.1 mph 63 % 0.00 in
21:22 54.8 °F 42.4 °F 29.83 in WSW 6.5 mph 12.7 mph 63 % 0.00 in
21:27 54.7 °F 42.3 °F 29.83 in West 5.8 mph 15.0 mph 63 % 0.00 in
21:32 54.6 °F 41.8 °F 29.84 in NNW 6.9 mph 17.3 mph 62 % 0.00 in
21:37 54.5 °F 42.2 °F 29.83 in West 4.0 mph 8.1 mph 63 % 0.00 in
21:42 54.5 °F 42.2 °F 29.83 in NW 1.7 mph 8.0 mph 63 % 0.00 in
21:47 54.4 °F 42.1 °F 29.84 in SW 5.6 mph 15.0 mph 63 % 0.00 in
21:52 54.2 °F 41.9 °F 29.84 in WNW 2.8 mph 8.1 mph 63 % 0.00 in
21:57 54.1 °F 42.2 °F 29.84 in West 5.0 mph 11.5 mph 64 % 0.00 in
22:02 54.0 °F 42.1 °F 29.85 in WSW 4.5 mph 9.2 mph 64 % 0.00 in
22:07 53.9 °F 41.6 °F 29.85 in SW 7.5 mph 16.1 mph 63 % 0.00 in
22:12 53.8 °F 41.5 °F 29.85 in WSW 1.9 mph 16.1 mph 63 % 0.00 in
22:17 53.7 °F 41.8 °F 29.85 in West 7.1 mph 12.7 mph 64 % 0.00 in
22:23 53.6 °F 41.7 °F 29.85 in West 3.6 mph 6.9 mph 64 % 0.00 in
22:28 53.5 °F 40.8 °F 29.85 in West 9.2 mph 17.3 mph 62 % 0.00 in
22:33 53.4 °F 40.7 °F 29.86 in NW 4.8 mph 17.3 mph 62 % 0.00 in
22:38 53.3 °F 40.6 °F 29.86 in WNW 6.0 mph 11.5 mph 62 % 0.00 in
22:43 53.3 °F 41.4 °F 29.86 in WSW 5.0 mph 10.0 mph 64 % 0.00 in
22:48 53.3 °F 41.4 °F 29.86 in NW 5.8 mph 11.5 mph 64 % 0.00 in
22:53 53.2 °F 40.9 °F 29.87 in WSW 6.0 mph 11.5 mph 63 % 0.00 in
22:58 53.2 °F 41.3 °F 29.87 in West 3.9 mph 8.1 mph 64 % 0.00 in
23:03 53.1 °F 41.2 °F 29.86 in West 2.1 mph 8.1 mph 64 % 0.00 in
23:08 52.9 °F 41.0 °F 29.86 in WNW 4.0 mph 6.9 mph 64 % 0.00 in
23:13 52.8 °F 41.4 °F 29.86 in WNW 3.8 mph 8.1 mph 65 % 0.00 in
23:18 52.7 °F 41.3 °F 29.86 in SSW 3.2 mph 5.0 mph 65 % 0.00 in
23:23 52.6 °F 41.6 °F 29.86 in West 4.1 mph 7.0 mph 66 % 0.00 in
23:28 52.5 °F 41.5 °F 29.86 in West 3.4 mph 7.0 mph 66 % 0.00 in
23:33 52.4 °F 41.4 °F 29.86 in WNW 4.6 mph 8.0 mph 66 % 0.00 in
23:38 52.2 °F 41.2 °F 29.86 in West 4.1 mph 11.5 mph 66 % 0.00 in
23:43 52.1 °F 41.1 °F 29.86 in SSW 4.7 mph 13.8 mph 66 % 0.00 in
23:49 52.1 °F 41.5 °F 29.86 in WNW 5.8 mph 10.4 mph 67 % 0.00 in
23:54 52.0 °F 41.4 °F 29.86 in West 1.6 mph 8.1 mph 67 % 0.00 in
23:59 51.9 °F 41.7 °F 29.87 in SW 3.4 mph 8.1 mph 68 % 0.00 in
Crab Meadow Weather
Compliments of Weather Underground - 3 mb

Script developed by  Jim McMurry - jmcmurry@mwt.net Adapted for the template by  Wim van der Kuil - Leuven-Template.eu

Extremes: In Wyndham, Australia, the temperature reached 90 degrees F for 333 days in 1946.